Time;durP1;ratioP1;P1;durP2;ratioP2;P2;SDS_P1;SDS_P2;PMS_P1;PMS_P2;Temp;Humidity;BMP_temperature;BMP_pressure;BME280_temperature;BME280_humidity;BME280_pressure;Samples;Min_cycle;Max_cycle;Signal;HPM_P1;HPM_P2
2022/03/18 00:00:40;;;;;;;12.50;4.55;;;;;;;16.70;17.83;101973.78;5109933;28;20134;-69
2022/03/18 00:03:05;;;;;;;10.77;3.83;;;;;;;16.74;17.49;101967.28;5109904;28;20188;-68
2022/03/18 00:05:34;;;;;;;7.60;3.83;;;;;;;16.76;17.77;101973.38;5109344;28;20125;-66
2022/03/18 00:08:00;;;;;;;7.50;4.15;;;;;;;16.77;17.65;101971.56;5109694;28;20177;-66
2022/03/18 00:10:26;;;;;;;9.20;4.38;;;;;;;16.77;17.50;101969.75;5109943;28;20117;-67
2022/03/18 00:12:52;;;;;;;11.50;4.57;;;;;;;16.81;17.81;101969.56;5109686;28;20019;-68
2022/03/18 00:15:19;;;;;;;9.05;4.03;;;;;;;16.82;17.96;101966.78;5109836;28;20048;-66
2022/03/18 00:17:45;;;;;;;11.85;3.55;;;;;;;16.83;17.75;101962.28;5109622;28;20050;-69
2022/03/18 00:20:13;;;;;;;11.05;4.55;;;;;;;16.84;17.79;101959.50;5109647;28;20107;-67
2022/03/18 00:22:43;;;;;;;13.88;4.32;;;;;;;16.84;17.50;101963.97;5109449;28;20034;-68
2022/03/18 00:25:09;;;;;;;11.48;4.93;;;;;;;16.87;17.61;101961.09;5109592;28;20031;-68
2022/03/18 00:27:36;;;;;;;10.30;4.13;;;;;;;16.85;17.62;101961.22;5109428;28;20235;-68
2022/03/18 00:30:03;;;;;;;10.10;4.30;;;;;;;16.89;17.90;101959.19;5109411;28;20043;-67
2022/03/18 00:32:29;;;;;;;9.98;5.03;;;;;;;16.88;18.04;101955.69;5109497;28;20024;-69
2022/03/18 00:34:54;;;;;;;10.27;4.00;;;;;;;16.92;17.68;101961.66;5109429;28;20050;-68
2022/03/18 00:37:20;;;;;;;9.10;4.57;;;;;;;16.93;17.70;101958.88;5109184;28;20046;-66
2022/03/18 00:39:46;;;;;;;10.32;4.20;;;;;;;16.93;17.83;101952.69;5109202;28;20020;-70
2022/03/18 00:42:12;;;;;;;18.42;4.97;;;;;;;16.93;17.86;101956.19;5108579;28;20069;-68
2022/03/18 00:44:39;;;;;;;12.23;4.70;;;;;;;16.96;17.87;101962.34;5107879;28;20027;-68
2022/03/18 00:52:37;;;;;;;13.13;4.45;;;;;;;16.99;17.46;101959.47;5096488;28;20027;-70
2022/03/18 00:55:03;;;;;;;13.65;4.63;;;;;;;16.99;17.75;101956.78;5108977;28;20027;-66
2022/03/18 00:57:28;;;;;;;12.43;5.35;;;;;;;17.03;17.89;101958.31;5108529;28;20034;-67
2022/03/18 00:59:54;;;;;;;15.05;5.53;;;;;;;17.03;17.93;101953.81;5107707;28;20016;-69
2022/03/18 01:02:19;;;;;;;10.02;4.72;;;;;;;17.05;17.73;101957.22;5108304;28;20040;-68
2022/03/18 01:04:45;;;;;;;12.63;5.93;;;;;;;17.06;18.01;101955.41;5108857;28;20024;-69
2022/03/18 01:07:10;;;;;;;10.25;4.70;;;;;;;17.06;17.83;101953.59;5108656;28;20080;-66
2022/03/18 01:09:36;;;;;;;9.88;5.18;;;;;;;17.06;17.64;101953.59;5107640;28;20019;-71
2022/03/18 01:12:04;;;;;;;12.52;4.82;;;;;;;17.07;17.98;101955.31;5108523;28;20028;-67
2022/03/18 01:14:30;;;;;;;11.05;5.20;;;;;;;17.05;18.00;101961.75;5108581;28;20029;-67
2022/03/18 01:16:55;;;;;;;9.45;5.40;;;;;;;16.99;17.96;101954.97;5108443;28;20092;-66
2022/03/18 01:19:21;;;;;;;11.05;4.97;;;;;;;16.96;18.20;101959.66;5104174;28;20269;-69
2022/03/18 01:21:47;;;;;;;15.43;5.28;;;;;;;16.93;18.22;101971.41;5088879;28;20081;-67
2022/03/18 01:24:12;;;;;;;9.80;4.25;;;;;;;16.90;18.22;101976.94;5098050;28;20044;-66
2022/03/18 01:26:39;;;;;;;11.00;4.65;;;;;;;16.90;18.44;101976.94;5089452;28;20070;-70
2022/03/18 01:29:04;;;;;;;13.32;6.05;;;;;;;16.88;18.17;101978.88;5087700;28;20185;-69
2022/03/18 01:31:30;;;;;;;11.05;4.63;;;;;;;16.85;18.29;101981.75;5106720;28;20036;-68
2022/03/18 01:33:56;;;;;;;13.10;4.95;;;;;;;16.86;18.71;101981.66;5106562;28;20032;-69
2022/03/18 01:36:22;;;;;;;11.73;4.53;;;;;;;16.84;18.52;101985.38;5106645;28;20091;-67
2022/03/18 01:38:47;;;;;;;11.68;4.90;;;;;;;16.81;18.59;101991.78;5092524;28;20076;-66
2022/03/18 01:41:13;;;;;;;12.07;4.57;;;;;;;16.81;18.49;101990.94;5087532;28;20012;-67
2022/03/18 01:43:44;;;;;;;15.88;4.90;;;;;;;16.81;18.63;101993.63;5087631;28;20039;-69
2022/03/18 01:46:11;;;;;;;14.10;4.80;;;;;;;16.78;18.50;101990.19;5087558;28;20092;-68
2022/03/18 01:48:37;;;;;;;15.77;5.22;;;;;;;16.76;18.41;101994.78;5087526;28;20040;-69
2022/03/18 01:51:04;;;;;;;8.10;4.03;;;;;;;16.75;18.66;101990.38;5087415;28;20214;-67
2022/03/18 01:53:30;;;;;;;12.75;5.35;;;;;;;16.74;18.60;101987.81;5087468;28;20017;-69
2022/03/18 01:55:56;;;;;;;12.32;4.97;;;;;;;16.73;18.51;101992.28;5087299;28;20016;-68
2022/03/18 01:58:24;;;;;;;10.05;5.03;;;;;;;16.73;18.62;101989.63;5087437;28;20040;-68
2022/03/18 02:00:50;;;;;;;14.05;5.57;;;;;;;16.70;18.50;101989.81;5090644;28;20011;-69
2022/03/18 02:03:15;;;;;;;13.10;5.10;;;;;;;16.69;18.35;101989.94;5087433;28;20118;-66
2022/03/18 02:05:41;;;;;;;11.75;5.28;;;;;;;16.68;18.67;101986.41;5087336;28;20031;-68
2022/03/18 02:08:08;;;;;;;7.25;4.50;;;;;;;16.67;18.58;101998.06;5087508;28;20016;-66
2022/03/18 02:10:35;;;;;;;11.85;4.45;;;;;;;16.66;18.69;101993.66;5086579;28;20027;-67
2022/03/18 02:13:01;;;;;;;10.90;4.82;;;;;;;16.65;18.35;101991.94;5087453;28;20020;-66
2022/03/18 02:15:26;;;;;;;12.10;4.40;;;;;;;16.62;18.52;101992.16;5087172;28;20023;-67
2022/03/18 02:17:52;;;;;;;8.95;4.75;;;;;;;16.60;18.21;101988.72;5097350;28;20085;-69
2022/03/18 02:20:17;;;;;;;12.23;4.93;;;;;;;16.58;18.33;101987.94;5106080;28;20141;-68
2022/03/18 02:22:43;;;;;;;7.55;4.35;;;;;;;16.58;18.56;101995.97;5106180;28;20019;-68
2022/03/18 02:25:12;;;;;;;9.80;5.53;;;;;;;16.56;18.65;101990.75;5106066;28;20045;-69
2022/03/18 02:27:38;;;;;;;11.43;4.75;;;;;;;16.56;18.31;101990.75;5105905;28;20137;-66
2022/03/18 02:30:07;;;;;;;12.27;5.40;;;;;;;16.57;18.62;101994.25;5106027;28;20292;-64
2022/03/18 02:32:34;;;;;;;9.05;4.90;;;;;;;16.59;18.35;101997.69;5086802;28;20083;-69
2022/03/18 02:35:01;;;;;;;13.73;4.82;;;;;;;16.59;18.37;102003.91;5087099;28;20051;-67
2022/03/18 02:37:27;;;;;;;8.90;4.10;;;;;;;16.62;18.42;101997.50;5087233;28;20016;-68
2022/03/18 02:39:53;;;;;;;7.47;3.88;;;;;;;16.59;18.52;101997.69;5087086;28;20028;-69
2022/03/18 02:42:19;;;;;;;8.55;4.13;;;;;;;16.58;18.61;102007.53;5086936;28;20020;-70
2022/03/18 02:44:44;;;;;;;10.80;4.40;;;;;;;16.57;18.25;102004.94;5087008;28;20142;-68
2022/03/18 02:47:10;;;;;;;12.43;6.13;;;;;;;16.54;18.50;102006.00;5086980;28;20024;-69
2022/03/18 02:49:35;;;;;;;9.93;4.25;;;;;;;16.52;18.16;102001.72;5086774;28;20023;-68
2022/03/18 02:52:01;;;;;;;7.88;3.97;;;;;;;16.52;18.44;102002.56;5086849;28;20028;-68
2022/03/18 02:54:26;;;;;;;11.73;4.63;;;;;;;16.52;18.65;102012.41;5086869;28;20028;-68
2022/03/18 02:56:52;;;;;;;10.30;4.65;;;;;;;16.51;18.30;102006.19;5086776;28;20040;-68
2022/03/18 02:59:18;;;;;;;8.90;4.80;;;;;;;16.47;18.38;101999.31;5087825;28;20115;-70
2022/03/18 03:01:43;;;;;;;9.68;4.28;;;;;;;16.47;18.72;102002.00;5088383;28;20067;-68
2022/03/18 03:04:09;;;;;;;16.10;4.25;;;;;;;16.44;18.58;101999.56;5087051;28;20023;-69
2022/03/18 03:09:19;;;;;;;8.40;4.55;;;;;;;16.43;18.11;102000.50;5086607;28;20019;-69
2022/03/18 03:11:45;;;;;;;8.63;5.20;;;;;;;16.41;18.19;101992.56;5105467;28;20160;-69
2022/03/18 03:14:12;;;;;;;7.43;4.15;;;;;;;16.43;18.19;102004.03;5099820;28;20021;-71
2022/03/18 03:16:38;;;;;;;6.97;4.30;;;;;;;16.42;18.67;102001.47;5086527;28;20122;-71
2022/03/18 03:19:03;;;;;;;9.23;3.70;;;;;;;16.41;18.68;102011.28;5086581;28;20025;-71
2022/03/18 03:21:30;;;;;;;5.30;3.67;;;;;;;16.44;18.69;102005.75;5088732;28;20031;-70
2022/03/18 03:23:56;;;;;;;6.82;4.07;;;;;;;16.48;18.20;102003.72;5090371;28;20075;-69
2022/03/18 03:26:21;;;;;;;9.60;4.68;;;;;;;16.49;18.48;102008.09;5090108;28;20020;-70
2022/03/18 03:28:47;;;;;;;12.90;4.10;;;;;;;16.47;18.20;102007.34;5090757;28;20089;-70
2022/03/18 03:31:13;;;;;;;9.35;3.75;;;;;;;16.49;18.58;102016.13;5090029;28;20025;-72
2022/03/18 03:33:38;;;;;;;8.50;3.60;;;;;;;16.50;18.43;102017.00;5090064;28;20055;-68
2022/03/18 03:36:04;;;;;;;7.28;3.72;;;;;;;16.50;18.57;102011.66;5089865;28;20039;-68
2022/03/18 03:38:30;;;;;;;9.75;3.75;;;;;;;16.51;18.46;102021.38;5090042;28;20070;-72
2022/03/18 03:40:55;;;;;;;6.43;3.50;;;;;;;16.53;18.27;102014.13;5089851;28;20133;-69
2022/03/18 03:43:21;;;;;;;7.65;4.43;;;;;;;16.53;18.23;102012.31;5089888;28;20012;-70
2022/03/18 03:45:47;;;;;;;9.13;4.28;;;;;;;16.52;18.37;102013.25;5089784;28;20048;-70
2022/03/18 03:48:13;;;;;;;9.77;3.85;;;;;;;16.54;18.52;102015.84;5089922;28;20016;-70
2022/03/18 03:50:42;;;;;;;12.25;4.32;;;;;;;16.54;18.18;102010.50;5093763;28;20125;-72
2022/03/18 03:53:08;;;;;;;10.32;4.60;;;;;;;16.53;18.40;102004.28;5089824;28;20184;-72
2022/03/18 03:55:38;;;;;;;8.35;4.38;;;;;;;16.53;18.05;102004.28;5089740;28;20024;-71
2022/03/18 03:58:07;;;;;;;7.28;3.72;;;;;;;16.53;18.07;102006.97;5089623;28;20269;-72
2022/03/18 04:00:36;;;;;;;7.22;3.72;;;;;;;16.55;18.39;102006.84;5091904;28;20017;-71
2022/03/18 04:03:05;;;;;;;6.75;3.70;;;;;;;16.55;18.60;102009.53;5089489;28;20142;-72
2022/03/18 04:05:32;;;;;;;10.32;5.00;;;;;;;16.59;18.64;102013.72;5089817;28;20099;-70
2022/03/18 04:07:57;;;;;;;11.13;4.65;;;;;;;16.60;18.50;102010.09;5089554;28;20020;-69
2022/03/18 04:10:23;;;;;;;6.63;3.97;;;;;;;16.64;18.28;102014.28;5089532;28;20067;-68
2022/03/18 04:12:48;;;;;;;8.32;4.35;;;;;;;16.63;18.18;102004.56;5089367;28;20031;-71
2022/03/18 04:15:14;;;;;;;11.65;4.43;;;;;;;16.62;18.09;102008.19;5089552;28;20146;-68
2022/03/18 04:17:58;;;;;;;7.35;4.07;;;;;;;16.58;18.57;102004.00;5089426;28;20016;-67
2022/03/18 04:20:24;;;;;;;7.40;3.85;;;;;;;16.61;18.45;102003.78;5089366;28;20030;-69
2022/03/18 04:22:51;;;;;;;7.20;4.10;;;;;;;16.65;18.04;102004.44;5089208;28;20241;-69
2022/03/18 04:25:17;;;;;;;6.53;3.97;;;;;;;16.69;18.09;102005.97;5089283;28;20051;-68
2022/03/18 04:27:42;;;;;;;6.70;4.18;;;;;;;16.77;18.35;102000.97;5089142;28;20112;-70
2022/03/18 04:30:12;;;;;;;8.95;3.92;;;;;;;16.84;18.03;102007.63;5089123;28;20025;-70
2022/03/18 04:32:37;;;;;;;8.20;3.72;;;;;;;16.89;17.94;102005.53;5088258;28;20040;-70
2022/03/18 04:35:07;;;;;;;8.73;4.32;;;;;;;16.97;17.73;102006.84;5089004;28;20083;-68
2022/03/18 04:37:33;;;;;;;7.32;3.95;;;;;;;17.02;17.95;102010.94;5089019;28;20035;-69
2022/03/18 04:39:58;;;;;;;8.77;4.03;;;;;;;17.08;18.16;102005.19;5104245;28;20024;-72
2022/03/18 04:42:24;;;;;;;9.18;4.97;;;;;;;17.15;18.11;102013.66;5109230;28;20019;-69
2022/03/18 04:44:49;;;;;;;7.97;4.53;;;;;;;17.20;17.87;102006.19;5109228;28;20149;-67
2022/03/18 04:47:15;;;;;;;9.77;4.22;;;;;;;17.27;18.13;102011.97;5109086;28;20066;-67
2022/03/18 04:49:41;;;;;;;9.77;4.53;;;;;;;17.31;18.13;102010.78;5109015;28;20086;-69
2022/03/18 04:52:06;;;;;;;7.85;4.43;;;;;;;17.36;17.94;102011.34;5108998;28;20092;-69
2022/03/18 04:54:32;;;;;;;6.45;3.78;;;;;;;17.41;17.79;102008.34;5108850;28;20028;-68
2022/03/18 04:57:16;;;;;;;10.32;4.68;;;;;;;17.46;17.82;102018.72;5108876;28;20140;-71
2022/03/18 04:59:42;;;;;;;8.75;4.90;;;;;;;17.52;17.91;102016.47;5108637;28;20266;-69
2022/03/18 05:02:10;;;;;;;9.60;4.10;;;;;;;17.63;17.55;102017.59;5108687;28;20198;-69
2022/03/18 05:04:36;;;;;;;9.07;4.50;;;;;;;17.69;17.87;102011.78;5108634;28;20030;-70
2022/03/18 05:07:03;;;;;;;7.00;4.00;;;;;;;17.77;17.78;102022.84;5090838;28;20085;-67
2022/03/18 05:09:28;;;;;;;8.10;4.38;;;;;;;17.85;17.50;102022.31;5108648;28;20023;-67
2022/03/18 05:11:54;;;;;;;8.77;4.95;;;;;;;17.94;17.54;102027.00;5108561;28;20027;-68
2022/03/18 05:14:19;;;;;;;7.35;4.13;;;;;;;18.01;17.47;102024.78;5108499;28;20060;-71
2022/03/18 05:16:45;;;;;;;7.95;4.68;;;;;;;18.06;17.50;102032.47;5108362;28;20031;-70
2022/03/18 05:19:10;;;;;;;6.20;4.10;;;;;;;18.11;17.57;102035.69;5108361;28;20339;-70
2022/03/18 05:21:37;;;;;;;8.10;4.38;;;;;;;18.15;17.59;102032.69;5108450;28;20048;-68
2022/03/18 05:24:03;;;;;;;8.65;4.78;;;;;;;18.20;17.26;102028.84;5108423;28;20023;-70
2022/03/18 05:26:29;;;;;;;9.05;4.35;;;;;;;18.27;17.34;102032.78;5108252;28;20012;-71
2022/03/18 05:28:55;;;;;;;6.55;4.03;;;;;;;18.36;17.37;102025.91;5099197;28;20036;-71
2022/03/18 05:31:21;;;;;;;11.40;4.97;;;;;;;18.42;17.63;102023.63;5087824;28;20016;-71
2022/03/18 05:33:47;;;;;;;7.88;4.93;;;;;;;18.42;17.76;102026.31;5087770;28;20260;-72
2022/03/18 05:36:12;;;;;;;6.82;4.53;;;;;;;18.35;17.77;102021.50;5087819;28;20043;-70
2022/03/18 05:38:38;;;;;;;10.00;4.90;;;;;;;18.29;17.69;102028.16;5087970;28;20031;-69
2022/03/18 05:41:04;;;;;;;8.05;5.05;;;;;;;18.27;17.87;102032.78;5088066;28;20032;-67
2022/03/18 05:43:29;;;;;;;9.80;4.03;;;;;;;18.27;17.72;102035.44;5087434;28;20222;-69
2022/03/18 05:45:55;;;;;;;10.45;5.22;;;;;;;18.28;17.76;102019.28;5087273;28;20008;-69
2022/03/18 05:48:20;;;;;;;8.82;5.07;;;;;;;18.30;17.69;102025.38;5087832;28;20121;-69
2022/03/18 05:50:46;;;;;;;7.53;4.15;;;;;;;18.31;17.75;102023.56;5087569;28;20016;-69
2022/03/18 05:53:12;;;;;;;5.97;3.75;;;;;;;18.33;17.98;102020.75;5087618;28;20176;-70
2022/03/18 05:58:22;;;;;;;6.78;4.13;;;;;;;18.39;18.04;102033.72;5087677;28;20023;-70
2022/03/18 06:00:47;;;;;;;10.95;3.85;;;;;;;18.41;18.01;102031.78;5101014;28;20037;-71
2022/03/18 06:03:13;;;;;;;7.10;4.07;;;;;;;18.40;17.81;102025.56;5107811;28;20012;-70
2022/03/18 06:05:42;;;;;;;8.82;4.00;;;;;;;18.43;17.77;102024.50;5090084;28;20011;-69
2022/03/18 06:13:37;;;;;;;6.25;4.15;;;;;;;18.40;18.20;102019.34;5107951;28;20069;-69
2022/03/18 06:16:03;;;;;;;9.07;4.10;;;;;;;18.41;17.99;102023.75;5107572;28;20020;-67
2022/03/18 06:18:28;;;;;;;8.43;4.95;;;;;;;18.43;17.86;102029.88;5107550;28;20020;-71
2022/03/18 06:20:55;;;;;;;6.53;3.85;;;;;;;18.46;17.88;102029.63;5107512;28;20008;-70
2022/03/18 06:23:21;;;;;;;10.95;4.57;;;;;;;18.51;17.56;102029.31;5107627;28;20019;-69
2022/03/18 06:25:46;;;;;;;7.82;3.78;;;;;;;18.52;17.83;102014.94;5107545;28;20015;-69
2022/03/18 06:28:12;;;;;;;7.20;4.20;;;;;;;18.54;17.70;102021.88;5107574;28;20020;-67
2022/03/18 06:30:37;;;;;;;5.95;3.65;;;;;;;18.57;17.80;102015.44;5098901;28;20017;-68
2022/03/18 06:33:04;;;;;;;5.10;3.70;;;;;;;18.58;17.90;102015.34;5087095;28;20118;-68
2022/03/18 06:35:29;;;;;;;9.05;4.00;;;;;;;18.57;18.00;102016.31;5087590;28;20035;-68
2022/03/18 06:37:55;;;;;;;7.88;3.80;;;;;;;18.55;18.03;102012.00;5087045;28;20016;-69
2022/03/18 06:40:21;;;;;;;5.68;3.78;;;;;;;18.51;18.06;102014.06;5087146;28;20017;-68
2022/03/18 06:42:46;;;;;;;9.77;3.88;;;;;;;18.45;17.88;102011.84;5087070;28;20040;-70
2022/03/18 06:45:12;;;;;;;6.72;3.78;;;;;;;18.42;18.29;102015.59;5087198;28;20129;-68
2022/03/18 06:47:38;;;;;;;8.88;4.20;;;;;;;18.38;18.23;102006.03;5087003;28;20012;-68
2022/03/18 06:50:04;;;;;;;6.93;3.67;;;;;;;18.38;18.30;102005.19;5101060;28;20020;-68
2022/03/18 06:52:30;;;;;;;6.28;3.33;;;;;;;18.35;18.25;102002.75;5107284;28;20095;-69
2022/03/18 06:54:55;;;;;;;6.45;3.78;;;;;;;18.32;18.35;101998.47;5107410;28;20027;-68
2022/03/18 06:57:21;;;;;;;9.35;4.07;;;;;;;18.32;18.33;102001.16;5111130;28;20038;-68
2022/03/18 06:59:47;;;;;;;8.75;3.80;;;;;;;18.34;18.33;101991.19;5111183;28;20224;-69
2022/03/18 07:02:15;;;;;;;9.45;4.20;;;;;;;18.34;18.20;101995.66;5111137;28;20030;-68
2022/03/18 07:04:41;;;;;;;6.03;3.78;;;;;;;18.33;18.14;101988.59;5111161;28;20055;-67
2022/03/18 07:07:06;;;;;;;9.00;3.80;;;;;;;18.30;18.00;101992.34;5111099;28;20023;-70
2022/03/18 07:09:32;;;;;;;9.32;3.58;;;;;;;18.31;18.25;101988.72;5111074;28;20019;-71
2022/03/18 07:11:58;;;;;;;7.90;3.90;;;;;;;18.34;18.31;101991.19;5111039;28;20015;-71
2022/03/18 07:14:23;;;;;;;6.43;4.00;;;;;;;18.35;18.15;101990.22;5111018;28;20125;-68
2022/03/18 07:19:33;;;;;;;7.13;3.95;;;;;;;18.34;18.00;101985.81;5110887;28;20019;-70
2022/03/18 07:21:59;;;;;;;8.88;3.65;;;;;;;18.34;18.21;101987.63;5110921;28;20075;-68
2022/03/18 07:24:24;;;;;;;8.88;3.97;;;;;;;18.32;18.38;101989.56;5110889;28;20273;-70
2022/03/18 07:26:50;;;;;;;8.48;4.05;;;;;;;18.34;18.29;101988.50;5110745;28;20024;-70
2022/03/18 07:29:15;;;;;;;9.30;4.20;;;;;;;18.33;17.84;101983.22;5110729;28;20223;-70
2022/03/18 07:31:41;;;;;;;6.68;4.18;;;;;;;18.36;18.29;101981.22;5106752;28;20024;-69
2022/03/18 07:34:06;;;;;;;7.03;4.93;;;;;;;18.37;18.21;101977.56;5090210;28;20037;-69
2022/03/18 07:36:32;;;;;;;6.97;4.65;;;;;;;18.39;18.01;101980.97;5090181;28;20012;-69
2022/03/18 07:38:58;;;;;;;6.40;3.50;;;;;;;18.40;18.02;101971.09;5101045;28;20016;-68
2022/03/18 07:41:23;;;;;;;6.45;4.25;;;;;;;18.37;18.22;101964.16;5110433;28;20133;-68
2022/03/18 07:43:49;;;;;;;11.32;4.35;;;;;;;18.41;18.30;101970.13;5110501;28;20035;-69
2022/03/18 07:46:16;;;;;;;8.98;3.38;;;;;;;18.44;18.63;101959.19;5110362;28;20012;-68
2022/03/18 07:48:44;;;;;;;8.10;4.20;;;;;;;18.47;18.41;101964.31;5110587;28;20113;-70
2022/03/18 07:51:10;;;;;;;13.15;3.83;;;;;;;18.49;18.26;101965.06;5110169;28;20020;-70
2022/03/18 07:53:35;;;;;;;8.40;3.72;;;;;;;18.49;18.51;101970.41;5110229;28;20020;-70
2022/03/18 07:56:01;;;;;;;6.97;3.22;;;;;;;18.50;19.19;101966.78;5110216;28;20024;-69
2022/03/18 07:58:26;;;;;;;7.07;3.40;;;;;;;18.54;19.35;101968.25;5110219;28;20016;-70
2022/03/18 08:00:52;;;;;;;6.38;2.92;;;;;;;18.63;20.37;101974.78;5109881;28;20032;-70
2022/03/18 08:03:17;;;;;;;5.93;2.97;;;;;;;18.76;21.11;101974.69;5109988;28;20015;-70
2022/03/18 08:05:45;;;;;;;8.15;3.40;;;;;;;18.89;20.44;101972.84;5110008;28;20080;-69
2022/03/18 08:08:10;;;;;;;6.18;3.67;;;;;;;18.94;19.82;101972.50;5108922;28;20221;-68
2022/03/18 08:10:37;;;;;;;8.82;3.35;;;;;;;18.95;20.41;101978.72;5109827;28;20051;-72
2022/03/18 08:13:03;;;;;;;6.20;3.53;;;;;;;19.02;20.36;101972.78;5109788;28;20138;-69
2022/03/18 08:15:29;;;;;;;5.35;2.97;;;;;;;19.11;20.90;101970.38;5109603;28;20047;-69
2022/03/18 08:17:54;;;;;;;8.95;3.13;;;;;;;19.23;21.47;101971.25;5109973;28;20217;-69
2022/03/18 08:20:21;;;;;;;7.00;3.45;;;;;;;19.35;21.02;101962.22;5109725;28;20118;-70
2022/03/18 08:22:48;;;;;;;4.53;2.92;;;;;;;19.35;21.40;101957.75;5109569;28;20020;-70
2022/03/18 08:25:13;;;;;;;5.85;3.50;;;;;;;19.49;21.24;101955.81;5109655;28;20110;-69
2022/03/18 08:27:40;;;;;;;5.78;3.80;;;;;;;19.51;20.40;101965.44;5109473;28;20054;-70
2022/03/18 08:30:08;;;;;;;8.52;3.65;;;;;;;19.50;19.78;101966.41;5109534;28;20093;-71
2022/03/18 08:32:34;;;;;;;5.07;3.67;;;;;;;19.45;19.89;101957.88;5109356;28;20027;-69
2022/03/18 08:35:00;;;;;;;7.50;3.30;;;;;;;19.36;19.52;101958.56;5092288;28;20063;-69
2022/03/18 08:40:12;;;;;;;6.18;3.20;;;;;;;19.22;19.23;101956.97;5089117;28;20092;-70
2022/03/18 08:42:38;;;;;;;6.68;2.97;;;;;;;19.17;19.70;101948.41;5088949;28;20111;-68
2022/03/18 08:45:04;;;;;;;4.93;3.10;;;;;;;19.15;19.66;101953.91;5088913;28;20054;-67
2022/03/18 08:47:30;;;;;;;6.22;3.47;;;;;;;19.16;19.53;101950.25;5088908;28;20107;-69
2022/03/18 08:49:56;;;;;;;6.38;3.35;;;;;;;19.14;19.15;101952.19;5089137;28;20182;-67
2022/03/18 08:52:22;;;;;;;6.47;3.95;;;;;;;19.10;19.00;101948.03;5088762;28;20044;-68
2022/03/18 08:54:47;;;;;;;4.38;3.13;;;;;;;19.06;18.95;101947.41;5088824;28;20039;-68
2022/03/18 08:57:13;;;;;;;4.50;2.90;;;;;;;19.04;18.82;101949.38;5088956;28;20222;-70
2022/03/18 08:59:39;;;;;;;4.20;3.00;;;;;;;19.01;18.70;101946.91;5092724;28;20031;-70
2022/03/18 09:02:04;;;;;;;6.05;3.08;;;;;;;19.00;18.71;101947.03;5108909;28;20028;-69
2022/03/18 09:04:30;;;;;;;6.88;3.17;;;;;;;18.94;18.58;101943.00;5108898;28;20083;-67
2022/03/18 09:06:56;;;;;;;3.40;2.80;;;;;;;18.97;18.73;101944.59;5106789;28;20027;-68
2022/03/18 09:09:22;;;;;;;5.32;3.20;;;;;;;18.95;19.31;101939.34;5088698;28;20263;-67
2022/03/18 09:11:47;;;;;;;5.40;3.00;;;;;;;18.96;19.43;101938.38;5087966;28;20024;-66
2022/03/18 09:14:13;;;;;;;6.82;3.22;;;;;;;18.97;19.64;101941.91;5089211;28;20066;-69
2022/03/18 09:16:39;;;;;;;5.93;2.83;;;;;;;18.99;19.45;101942.66;5088078;28;20125;-70
2022/03/18 09:19:06;;;;;;;4.15;2.70;;;;;;;18.97;19.65;101942.75;5087991;28;20097;-69
2022/03/18 09:21:31;;;;;;;7.05;2.63;;;;;;;18.98;19.16;101940.94;5088009;28;20024;-68
2022/03/18 09:23:57;;;;;;;5.72;3.15;;;;;;;18.98;19.46;101938.25;5088023;28;20074;-67
2022/03/18 09:26:23;;;;;;;3.85;2.97;;;;;;;18.98;19.49;101935.56;5090915;28;20020;-69
2022/03/18 09:28:48;;;;;;;4.03;2.58;;;;;;;19.00;19.39;101930.94;5087940;28;20039;-70
2022/03/18 09:31:14;;;;;;;5.03;2.92;;;;;;;18.99;19.10;101930.06;5087790;28;20030;-70
2022/03/18 09:33:42;;;;;;;6.35;3.20;;;;;;;19.00;18.87;101917.53;5087836;28;20109;-68
2022/03/18 09:36:09;;;;;;;4.50;2.95;;;;;;;19.00;19.05;101936.31;5087715;28;20055;-67
2022/03/18 09:38:35;;;;;;;4.32;2.88;;;;;;;18.99;19.12;101915.81;5087845;28;20244;-67
2022/03/18 09:41:00;;;;;;;3.78;2.70;;;;;;;19.01;19.57;101921.91;5087647;28;20090;-67
2022/03/18 09:43:33;;;;;;;5.45;2.50;;;;;;;19.01;19.06;101921.91;5087792;28;20016;-70
2022/03/18 09:45:59;;;;;;;7.25;3.58;;;;;;;18.99;18.86;101910.44;5087619;28;20225;-70
2022/03/18 09:48:25;;;;;;;6.63;2.92;;;;;;;19.00;19.04;101912.16;5087875;28;20079;-72
2022/03/18 09:50:52;;;;;;;4.95;2.90;;;;;;;18.98;18.90;101914.09;5090010;28;20024;-69
2022/03/18 09:53:17;;;;;;;5.82;2.65;;;;;;;18.97;18.77;101912.38;5087443;28;20035;-68
2022/03/18 09:55:43;;;;;;;3.58;2.58;;;;;;;18.97;18.75;101917.75;5087534;28;20020;-71
2022/03/18 09:58:09;;;;;;;5.22;2.97;;;;;;;18.96;18.87;101918.72;5087726;28;20221;-70
2022/03/18 10:00:34;;;;;;;5.63;2.92;;;;;;;18.95;18.88;101912.53;5091198;28;20029;-70
2022/03/18 10:03:10;;;;;;;3.38;2.28;;;;;;;18.97;18.71;101901.66;5087535;28;20028;-69
2022/03/18 10:05:52;;;;;;;4.15;3.05;;;;;;;18.95;18.82;101898.22;5087362;28;20048;-69
2022/03/18 10:08:17;;;;;;;5.75;2.83;;;;;;;18.95;18.82;101898.22;5102489;28;20031;-68
2022/03/18 10:10:47;;;;;;;4.70;2.50;;;;;;;18.98;19.46;101890.78;5106158;28;20024;-68
2022/03/18 10:13:15;;;;;;;5.57;2.65;;;;;;;18.98;19.16;101896.16;5106238;28;20085;-69
2022/03/18 10:15:41;;;;;;;3.60;2.53;;;;;;;19.01;19.13;101892.41;5106176;28;20028;-69
2022/03/18 10:18:11;;;;;;;6.43;2.70;;;;;;;18.99;18.88;101889.81;5106293;28;20039;-68
2022/03/18 10:20:43;;;;;;;3.65;2.83;;;;;;;18.98;19.08;101884.59;5106060;28;20129;-70
2022/03/18 10:23:14;;;;;;;4.60;2.88;;;;;;;19.00;19.18;101885.34;5105152;28;20252;-69
2022/03/18 10:25:53;;;;;;;7.63;2.75;;;;;;;19.00;19.45;101883.50;5105871;28;20095;-69
2022/03/18 10:28:40;;;;;;;4.00;2.95;;;;;;;18.99;19.23;101886.31;5106131;28;20132;-69
2022/03/18 10:31:30;;;;;;;4.45;2.40;;;;;;;18.98;18.99;101873.84;5108218;28;20030;-68
2022/03/18 10:39:40;;;;;;;4.20;2.97;;;;;;;19.04;19.80;101854.63;5097216;28;20024;-72
2022/03/18 10:42:09;;;;;;;4.07;2.65;;;;;;;19.05;19.73;101869.72;5099146;28;20012;-69
2022/03/18 10:44:47;;;;;;;7.13;3.03;;;;;;;19.10;19.71;101866.69;5091117;28;20027;-69
2022/03/18 10:47:27;;;;;;;4.07;2.38;;;;;;;19.12;21.16;101862.91;5096257;28;20225;-67
2022/03/18 10:50:11;;;;;;;5.15;3.03;;;;;;;19.16;21.43;101863.50;5098577;28;20062;-68
2022/03/18 10:52:38;;;;;;;10.43;4.13;;;;;;;19.19;20.50;101860.59;5107675;28;20028;-68
2022/03/18 10:55:20;;;;;;;4.93;2.63;;;;;;;19.21;20.81;101853.28;5108108;28;20028;-68
2022/03/18 10:58:05;;;;;;;5.40;3.08;;;;;;;19.25;20.60;101860.13;5086028;28;20136;-68
2022/03/18 11:00:32;;;;;;;4.45;2.47;;;;;;;19.26;19.82;101853.78;5108098;28;20056;-68
2022/03/18 11:03:00;;;;;;;4.22;2.85;;;;;;;19.21;19.90;101862.19;5106896;28;20051;-68
2022/03/18 11:05:31;;;;;;;6.82;3.45;;;;;;;18.97;20.03;101850.69;5109866;28;20126;-67
2022/03/18 11:07:58;;;;;;;4.28;2.83;;;;;;;18.71;20.10;101854.38;5102777;28;20028;-68
2022/03/18 11:13:08;;;;;;;7.85;3.10;;;;;;;18.36;20.49;101844.50;5096213;28;20062;-69
2022/03/18 11:15:39;;;;;;;4.18;2.92;;;;;;;18.31;20.35;101841.31;5091472;28;20168;-67
2022/03/18 11:18:08;;;;;;;4.53;2.72;;;;;;;18.24;20.17;101848.97;5092103;28;20012;-69
2022/03/18 11:20:33;;;;;;;4.75;3.15;;;;;;;18.16;19.86;101843.28;5098580;28;20012;-67
2022/03/18 11:23:00;;;;;;;7.43;2.70;;;;;;;18.07;20.27;101838.63;5090604;28;20158;-68
2022/03/18 11:25:27;;;;;;;4.15;2.33;;;;;;;17.95;20.30;101841.22;5091625;28;20212;-71
2022/03/18 11:27:56;;;;;;;4.38;2.38;;;;;;;17.90;20.34;101832.66;5098982;28;20024;-68
2022/03/18 11:30:23;;;;;;;11.27;6.15;;;;;;;17.90;20.82;101835.34;5095367;28;20039;-68
2022/03/18 11:33:10;;;;;;;10.43;6.50;;;;;;;17.91;20.91;101826.34;5099397;28;20060;-70
2022/03/18 11:36:13;;;;;;;7.97;6.43;;;;;;;17.90;20.88;101829.13;5109170;28;20229;-70
2022/03/18 11:38:51;;;;;;;8.15;5.93;;;;;;;17.90;21.03;101829.13;5101253;28;20027;-66
2022/03/18 11:41:18;;;;;;;7.78;5.95;;;;;;;17.90;20.90;101821.09;5101816;28;20027;-68
2022/03/18 11:43:44;;;;;;;8.00;5.85;;;;;;;17.89;21.56;101830.94;5095880;28;20019;-70
2022/03/18 11:46:12;;;;;;;8.57;5.10;;;;;;;17.91;21.26;101826.34;5093603;28;20632;-70
2022/03/18 11:48:42;;;;;;;6.43;4.90;;;;;;;17.90;21.20;101824.63;5093626;28;20031;-69
2022/03/18 11:51:35;;;;;;;5.75;4.15;;;;;;;17.92;21.13;101819.16;5098046;28;20012;-69
2022/03/18 11:54:05;;;;;;;8.88;4.47;;;;;;;17.91;20.97;101820.97;5089786;28;20035;-68